Albert Maersk — OUOW2 — position and weather

sailwx.info

Track history (hours):
 
Tides and Currents Weather Stations Pressure Air Temp Water Temp Dewpoint Dewpoint Depression Visibility Wind Speed Wind Dir Waves Ship Positions

Albert Maersk

Last reported at 2017-Jun-21 22:57 UTC. Time now 2017-Jun-24 09:00 UTC.
Position N 22°32' E 119°58'.

MMSI: 220259928.

Date/timePositionNaut miles runAvg speedWind from/ knotsBaromVisibWave heightAir tempDewpointWater temp
2017-Jun-21 22:57N 22°32' E 119°58'613.6
2017-Jun-21 22:30N 22°32' E 120°04'713.7
2017-Jun-21 22:00N 22°32' E 120°12'612.7
2017-Jun-21 21:30N 22°33' E 120°18'1 2.3
2017-Jun-21 21:00N 22°33' E 120°20'0 0.0
2017-Jun-21 20:25N 22°33' E 120°20'0 0.0
2017-Jun-21 19:55N 22°33' E 120°20'0 0.0
2017-Jun-21 19:25N 22°33' E 120°20'0 0.0
2017-Jun-21 18:55N 22°33' E 120°20'0 0.0
2017-Jun-21 18:25N 22°33' E 120°20'0 0.0
2017-Jun-21 17:49N 22°33' E 120°20'0 0.0
2017-Jun-21 17:19N 22°33' E 120°20'0 0.0
2017-Jun-21 16:55N 22°33' E 120°20'0 0.0
2017-Jun-21 16:19N 22°33' E 120°20'0 0.0
2017-Jun-21 15:43N 22°33' E 120°20'0 0.0
2017-Jun-21 14:43N 22°33' E 120°20'0 0.0
2017-Jun-21 11:07N 22°33' E 120°20'0 0.0
2017-Jun-21 10:31N 22°33' E 120°20'0 0.0
2017-Jun-21 08:43N 22°33' E 120°20'0 0.0
2017-Jun-21 08:30N 22°33' E 120°20'2 3.3
2017-Jun-21 08:00N 22°33' E 120°18'3 5.2
2017-Jun-21 07:30N 22°32' E 120°15'4 7.5
2017-Jun-21 07:00N 22°32' E 120°11'510.5
2017-Jun-21 06:30N 22°31' E 120°06'611.0
2017-Jun-21 06:00N 22°33' E 119°60'611.7
2017-Jun-21 05:30N 22°36' E 119°55'611.1
2017-Jun-21 05:00N 22°40' E 119°50'511.0
2017-Jun-21 04:30N 22°43' E 119°45'10812.9
2017-Jun-20 20:07N 24°00' E 118°23'213.2
2017-Jun-20 20:00N 24°02' E 118°23'1113.1
2017-Jun-20 19:11N 24°13' E 118°23'212.2
2017-Jun-20 19:00N 24°15' E 118°23'2 4.4
2017-Jun-20 18:30N 24°17' E 118°22'0 0.1
2017-Jun-20 17:52N 24°17' E 118°22'0 0.0
2017-Jun-20 17:28N 24°17' E 118°22'0 0.0
2017-Jun-20 16:58N 24°17' E 118°22'0 0.0
2017-Jun-20 16:28N 24°17' E 118°22'0 0.0
2017-Jun-20 15:55N 24°17' E 118°22'0 0.1
2017-Jun-20 15:28N 24°17' E 118°22'0 0.1
2017-Jun-20 14:58N 24°17' E 118°22'0 0.1
2017-Jun-20 13:58N 24°17' E 118°22'0 0.1
2017-Jun-20 13:28N 24°17' E 118°22'0 0.1
2017-Jun-20 12:58N 24°17' E 118°22'0 0.2
2017-Jun-20 12:28N 24°17' E 118°22'0 0.1
2017-Jun-20 11:58N 24°17' E 118°22'0 0.1
2017-Jun-20 11:28N 24°17' E 118°22'0 0.0
2017-Jun-20 10:52N 24°17' E 118°22'0 0.0
2017-Jun-20 10:04N 24°17' E 118°22'0 0.0
2017-Jun-20 09:52N 24°17' E 118°22'0 0.0
2017-Jun-20 09:22N 24°17' E 118°22'0 0.0
2017-Jun-20 08:52N 24°17' E 118°22'0 0.0
2017-Jun-20 08:28N 24°17' E 118°22'0 0.0
2017-Jun-20 07:58N 24°17' E 118°22'0 0.1
2017-Jun-20 07:28N 24°17' E 118°22'0 0.0
2017-Jun-20 06:58N 24°17' E 118°22'0 0.0
2017-Jun-20 05:58N 24°17' E 118°22'0 0.2
2017-Jun-20 05:30N 24°17' E 118°22'3 6.0
2017-Jun-20 05:00N 24°16' E 118°19'611.3
2017-Jun-20 04:30N 24°17' E 118°13'715.2
2017-Jun-20 04:01N 24°23' E 118°08'713.2
2017-Jun-20 03:30N 24°26' E 118°02'1 1.8
2017-Jun-20 02:55N 24°27' E 118°00'0 0.0
2017-Jun-20 02:22N 24°27' E 118°00'0 0.0
2017-Jun-20 01:58N 24°27' E 118°00'0 0.0
2017-Jun-20 01:28N 24°27' E 118°00'0 0.0
2017-Jun-20 00:58N 24°27' E 118°00'0 0.0
2017-Jun-20 00:25N 24°27' E 118°00'0 0.0
2017-Jun-19 23:58N 24°27' E 118°00'0 0.0
2017-Jun-19 23:29N 24°27' E 118°00'0 0.0
2017-Jun-19 23:00N 24°27' E 118°00'0 0.0
2017-Jun-19 22:30N 24°27' E 118°00'0 0.0
2017-Jun-19 21:58N 24°27' E 118°00'0 0.1
2017-Jun-19 21:28N 24°27' E 118°00'0 0.1
2017-Jun-19 20:58N 24°27' E 118°00'0 0.0
2017-Jun-19 20:30N 24°27' E 118°00'0 0.0
2017-Jun-19 20:00N 24°27' E 118°00'0 0.0
2017-Jun-19 19:30N 24°27' E 118°00'0 0.0
2017-Jun-19 18:58N 24°27' E 118°00'0 0.0
2017-Jun-19 18:29N 24°27' E 118°00'0 0.0
2017-Jun-19 17:55N 24°27' E 118°00'0 0.0
2017-Jun-19 17:30N 24°27' E 118°00'0 0.0
2017-Jun-19 16:59N 24°27' E 118°00'0 0.0
2017-Jun-19 16:23N 24°27' E 118°00'0 0.0
2017-Jun-19 15:59N 24°27' E 118°00'0 0.0
2017-Jun-19 15:29N 24°27' E 118°00'0 0.0
2017-Jun-19 14:59N 24°27' E 118°00'0 0.0
2017-Jun-19 13:47N 24°27' E 118°00'0 0.0
2017-Jun-19 13:29N 24°27' E 118°00'0 0.0
2017-Jun-19 12:59N 24°27' E 118°00'0 0.0
2017-Jun-19 12:26N 24°27' E 118°00'0 0.1
2017-Jun-19 12:00N 24°27' E 118°00'2 3.7
2017-Jun-19 11:30N 24°26' E 118°02'510.3
2017-Jun-19 11:00N 24°23' E 118°07'5 9.1
2017-Jun-19 10:30N 24°20' E 118°11'612.4
2017-Jun-19 10:00N 24°16' E 118°15'510.6
2017-Jun-19 09:30N 24°13' E 118°20'1 1.6
2017-Jun-19 08:57N 24°12' E 118°20'0 0.6
2017-Jun-19 08:24N 24°12' E 118°20'0 0.3
2017-Jun-19 07:59N 24°12' E 118°20'3 6.4
2017-Jun-19 07:30N 24°10' E 118°22'811.2
2017-Jun-19 06:48N 24°04' E 118°28'3 5.0
2017-Jun-19 06:13N 24°01' E 118°28'2 7.6
2017-Jun-19 05:56N 23°60' E 118°27'4 8.2
2017-Jun-19 05:29N 23°57' E 118°24'4 8.2
2017-Jun-19 05:00N 23°55' E 118°20'612.5
2017-Jun-19 04:30N 23°51' E 118°15'  
Track history (hours):
 
Tides and Currents Weather Stations Pressure Air Temp Water Temp Dewpoint Dewpoint Depression Visibility Wind Speed Wind Dir Waves Ship Positions

Albert Maersk

Last reported at 2017-Jun-21 22:57 UTC. Time now 2017-Jun-24 09:00 UTC.
Position N 22°32' E 119°58'.

MMSI: 220259928.

Date/timePositionNaut miles runAvg speedWind from/ knotsBaromVisibWave heightAir tempDewpointWater temp
2017-Jun-21 22:57N 22°32' E 119°58'613.6
2017-Jun-21 22:30N 22°32' E 120°04'713.7
2017-Jun-21 22:00N 22°32' E 120°12'612.7
2017-Jun-21 21:30N 22°33' E 120°18'1 2.3
2017-Jun-21 21:00N 22°33' E 120°20'0 0.0
2017-Jun-21 20:25N 22°33' E 120°20'0 0.0
2017-Jun-21 19:55N 22°33' E 120°20'0 0.0
2017-Jun-21 19:25N 22°33' E 120°20'0 0.0
2017-Jun-21 18:55N 22°33' E 120°20'0 0.0
2017-Jun-21 18:25N 22°33' E 120°20'0 0.0
2017-Jun-21 17:49N 22°33' E 120°20'0 0.0
2017-Jun-21 17:19N 22°33' E 120°20'0 0.0
2017-Jun-21 16:55N 22°33' E 120°20'0 0.0
2017-Jun-21 16:19N 22°33' E 120°20'0 0.0
2017-Jun-21 15:43N 22°33' E 120°20'0 0.0
2017-Jun-21 14:43N 22°33' E 120°20'0 0.0
2017-Jun-21 11:07N 22°33' E 120°20'0 0.0
2017-Jun-21 10:31N 22°33' E 120°20'0 0.0
2017-Jun-21 08:43N 22°33' E 120°20'0 0.0
2017-Jun-21 08:30N 22°33' E 120°20'2 3.3
2017-Jun-21 08:00N 22°33' E 120°18'3 5.2
2017-Jun-21 07:30N 22°32' E 120°15'4 7.5
2017-Jun-21 07:00N 22°32' E 120°11'510.5
2017-Jun-21 06:30N 22°31' E 120°06'611.0
2017-Jun-21 06:00N 22°33' E 119°60'611.7
2017-Jun-21 05:30N 22°36' E 119°55'611.1
2017-Jun-21 05:00N 22°40' E 119°50'511.0
2017-Jun-21 04:30N 22°43' E 119°45'10812.9
2017-Jun-20 20:07N 24°00' E 118°23'213.2
2017-Jun-20 20:00N 24°02' E 118°23'1113.1
2017-Jun-20 19:11N 24°13' E 118°23'212.2
2017-Jun-20 19:00N 24°15' E 118°23'2 4.4
2017-Jun-20 18:30N 24°17' E 118°22'0 0.1
2017-Jun-20 17:52N 24°17' E 118°22'0 0.0
2017-Jun-20 17:28N 24°17' E 118°22'0 0.0
2017-Jun-20 16:58N 24°17' E 118°22'0 0.0
2017-Jun-20 16:28N 24°17' E 118°22'0 0.0
2017-Jun-20 15:55N 24°17' E 118°22'0 0.1
2017-Jun-20 15:28N 24°17' E 118°22'0 0.1
2017-Jun-20 14:58N 24°17' E 118°22'0 0.1
2017-Jun-20 13:58N 24°17' E 118°22'0 0.1
2017-Jun-20 13:28N 24°17' E 118°22'0 0.1
2017-Jun-20 12:58N 24°17' E 118°22'0 0.2
2017-Jun-20 12:28N 24°17' E 118°22'0 0.1
2017-Jun-20 11:58N 24°17' E 118°22'0 0.1
2017-Jun-20 11:28N 24°17' E 118°22'0 0.0
2017-Jun-20 10:52N 24°17' E 118°22'0 0.0
2017-Jun-20 10:04N 24°17' E 118°22'0 0.0
2017-Jun-20 09:52N 24°17' E 118°22'0 0.0
2017-Jun-20 09:22N 24°17' E 118°22'0 0.0
2017-Jun-20 08:52N 24°17' E 118°22'0 0.0
2017-Jun-20 08:28N 24°17' E 118°22'0 0.0
2017-Jun-20 07:58N 24°17' E 118°22'0 0.1
2017-Jun-20 07:28N 24°17' E 118°22'0 0.0
2017-Jun-20 06:58N 24°17' E 118°22'0 0.0
2017-Jun-20 05:58N 24°17' E 118°22'0 0.2
2017-Jun-20 05:30N 24°17' E 118°22'3 6.0
2017-Jun-20 05:00N 24°16' E 118°19'611.3
2017-Jun-20 04:30N 24°17' E 118°13'715.2
2017-Jun-20 04:01N 24°23' E 118°08'713.2
2017-Jun-20 03:30N 24°26' E 118°02'1 1.8
2017-Jun-20 02:55N 24°27' E 118°00'0 0.0
2017-Jun-20 02:22N 24°27' E 118°00'0 0.0
2017-Jun-20 01:58N 24°27' E 118°00'0 0.0
2017-Jun-20 01:28N 24°27' E 118°00'0 0.0
2017-Jun-20 00:58N 24°27' E 118°00'0 0.0
2017-Jun-20 00:25N 24°27' E 118°00'0 0.0
2017-Jun-19 23:58N 24°27' E 118°00'0 0.0
2017-Jun-19 23:29N 24°27' E 118°00'0 0.0
2017-Jun-19 23:00N 24°27' E 118°00'0 0.0
2017-Jun-19 22:30N 24°27' E 118°00'0 0.0
2017-Jun-19 21:58N 24°27' E 118°00'0 0.1
2017-Jun-19 21:28N 24°27' E 118°00'0 0.1
2017-Jun-19 20:58N 24°27' E 118°00'0 0.0
2017-Jun-19 20:30N 24°27' E 118°00'0 0.0
2017-Jun-19 20:00N 24°27' E 118°00'0 0.0
2017-Jun-19 19:30N 24°27' E 118°00'0 0.0
2017-Jun-19 18:58N 24°27' E 118°00'0 0.0
2017-Jun-19 18:29N 24°27' E 118°00'0 0.0
2017-Jun-19 17:55N 24°27' E 118°00'0 0.0
2017-Jun-19 17:30N 24°27' E 118°00'0 0.0
2017-Jun-19 16:59N 24°27' E 118°00'0 0.0
2017-Jun-19 16:23N 24°27' E 118°00'0 0.0
2017-Jun-19 15:59N 24°27' E 118°00'0 0.0
2017-Jun-19 15:29N 24°27' E 118°00'0 0.0
2017-Jun-19 14:59N 24°27' E 118°00'0 0.0
2017-Jun-19 13:47N 24°27' E 118°00'0 0.0
2017-Jun-19 13:29N 24°27' E 118°00'0 0.0
2017-Jun-19 12:59N 24°27' E 118°00'0 0.0
2017-Jun-19 12:26N 24°27' E 118°00'0 0.1
2017-Jun-19 12:00N 24°27' E 118°00'2 3.7
2017-Jun-19 11:30N 24°26' E 118°02'510.3
2017-Jun-19 11:00N 24°23' E 118°07'5 9.1
2017-Jun-19 10:30N 24°20' E 118°11'612.4
2017-Jun-19 10:00N 24°16' E 118°15'510.6
2017-Jun-19 09:30N 24°13' E 118°20'1 1.6
2017-Jun-19 08:57N 24°12' E 118°20'0 0.6
2017-Jun-19 08:24N 24°12' E 118°20'0 0.3
2017-Jun-19 07:59N 24°12' E 118°20'3 6.4
2017-Jun-19 07:30N 24°10' E 118°22'811.2
2017-Jun-19 06:48N 24°04' E 118°28'3 5.0
2017-Jun-19 06:13N 24°01' E 118°28'2 7.6
2017-Jun-19 05:56N 23°60' E 118°27'4 8.2
2017-Jun-19 05:29N 23°57' E 118°24'4 8.2
2017-Jun-19 05:00N 23°55' E 118°20'612.5
2017-Jun-19 04:30N 23°51' E 118°15'  

Dump ship's entire track history